Time;durP1;ratioP1;P1;durP2;ratioP2;P2;SDS_P1;SDS_P2;PMS_P1;PMS_P2;Temp;Humidity;BMP_temperature;BMP_pressure;BME280_temperature;BME280_humidity;BME280_pressure;Samples;Min_cycle;Max_cycle;Signal;HPM_P1;HPM_P2
2023/06/09 00:02:04;;;;;;;0.70;0.70;;;;;;;17.14;82.12;96745.50;5084365;28;20101;-63
2023/06/09 00:04:33;;;;;;;0.70;0.70;;;;;;;17.20;81.60;96760.63;5084279;28;20146;-64
2023/06/09 00:07:02;;;;;;;0.70;0.70;;;;;;;17.19;81.52;96753.41;5083935;28;20056;-64
2023/06/09 00:09:32;;;;;;;0.70;0.70;;;;;;;16.97;81.55;96724.13;5084427;28;20129;-64
2023/06/09 00:11:59;;;;;;;0.70;0.70;;;;;;;17.21;81.02;96746.22;5083751;28;20059;-63
2023/06/09 00:14:26;;;;;;;0.80;0.80;;;;;;;16.92;82.40;96738.59;5084256;28;20424;-63
2023/06/09 00:16:53;;;;;;;0.70;0.70;;;;;;;16.99;82.27;96744.09;5084121;28;20048;-63
2023/06/09 00:19:20;;;;;;;0.70;0.70;;;;;;;16.89;82.45;96739.41;5084561;28;20419;-64
2023/06/09 00:21:49;;;;;;;0.70;0.70;;;;;;;16.91;82.38;96731.41;5082444;28;20044;-64
2023/06/09 00:24:21;;;;;;;0.80;0.80;;;;;;;16.89;83.07;96751.41;5067651;28;20060;-63
2023/06/09 00:26:51;;;;;;;0.70;0.70;;;;;;;16.39;83.06;96672.88;5062555;28;20114;-63
2023/06/09 00:29:21;;;;;;;0.70;0.70;;;;;;;16.90;83.58;96766.22;5063095;28;20048;-64
2023/06/09 00:31:48;;;;;;;0.70;0.70;;;;;;;16.86;84.03;96762.66;5063505;28;20052;-63
2023/06/09 00:34:15;;;;;;;0.70;0.70;;;;;;;16.83;84.25;96758.69;5063933;28;20087;-64
2023/06/09 00:36:42;;;;;;;0.70;0.70;;;;;;;16.79;84.50;96748.75;5062254;28;20435;-63
2023/06/09 00:39:08;;;;;;;0.65;0.65;;;;;;;16.75;84.66;96756.38;5063906;28;20059;-64
2023/06/09 00:41:39;;;;;;;0.70;0.70;;;;;;;15.03;85.00;96496.38;5070442;28;20048;-63
2023/06/09 00:44:06;;;;;;;0.70;0.70;;;;;;;16.64;86.44;96757.28;5086069;28;20044;-65
2023/06/09 00:46:35;;;;;;;0.60;0.60;;;;;;;16.73;85.75;96753.19;5079704;28;20062;-63
2023/06/09 00:49:02;;;;;;;0.80;0.80;;;;;;;16.36;85.27;96706.47;5087915;28;20051;-63
2023/06/09 00:51:29;;;;;;;0.70;0.70;;;;;;;16.29;84.88;96690.56;5087709;28;20082;-64
2023/06/09 00:53:57;;;;;;;0.70;0.70;;;;;;;16.43;85.76;96729.56;5087895;28;20136;-63
2023/06/09 00:56:24;;;;;;;0.70;0.70;;;;;;;16.60;86.15;96767.72;5086410;28;20052;-63
2023/06/09 00:58:51;;;;;;;0.70;0.70;;;;;;;16.16;86.52;96689.50;5088069;28;20051;-63
2023/06/09 01:01:18;;;;;;;0.68;0.68;;;;;;;16.55;86.74;96754.19;5087871;28;20130;-63
2023/06/09 01:03:48;;;;;;;0.70;0.70;;;;;;;16.49;87.10;96750.28;5087816;28;20394;-63
2023/06/09 01:06:30;;;;;;;0.70;0.70;;;;;;;16.44;86.74;96759.13;5087695;28;20056;-63
2023/06/09 01:09:04;;;;;;;0.70;0.70;;;;;;;16.50;87.02;96757.44;5088223;28;20048;-64
2023/06/09 01:12:09;;;;;;;0.70;0.70;;;;;;;16.54;86.63;96755.41;5087926;28;20151;-64
2023/06/09 01:14:38;;;;;;;;;;;;;;;16.38;86.59;96754.34;5088391;28;20063;-63
2023/06/09 01:17:11;;;;;;;0.70;0.70;;;;;;;16.19;87.53;96757.75;5086084;28;19938;-63
2023/06/09 01:19:44;;;;;;;0.65;0.65;;;;;;;16.26;87.56;96761.28;5085980;28;20051;-64
2023/06/09 01:22:19;;;;;;;0.70;0.70;;;;;;;16.22;87.54;96762.50;5079543;28;20056;-63
2023/06/09 01:25:05;;;;;;;0.65;0.65;;;;;;;16.28;87.54;96758.84;5116373;27;20061;-63
2023/06/09 01:27:36;;;;;;;0.70;0.70;;;;;;;16.06;87.60;96723.94;5107611;28;20063;-64
2023/06/09 01:30:05;;;;;;;0.70;0.70;;;;;;;16.12;87.80;96724.28;5108123;28;20592;-64
2023/06/09 01:32:32;;;;;;;0.70;0.70;;;;;;;16.29;87.26;96740.88;5107757;28;20097;-63
2023/06/09 01:35:00;;;;;;;0.70;0.70;;;;;;;16.31;86.57;96746.81;5107654;28;20062;-64
2023/06/09 01:37:28;;;;;;;0.70;0.70;;;;;;;16.23;86.77;96753.69;5107132;28;20047;-63
2023/06/09 01:39:55;;;;;;;0.70;0.70;;;;;;;16.25;86.92;96737.31;5107471;28;20484;-64
2023/06/09 01:42:21;;;;;;;0.70;0.70;;;;;;;16.21;87.33;96749.75;5107082;28;20078;-65
2023/06/09 01:44:48;;;;;;;0.65;0.65;;;;;;;16.20;87.81;96748.94;5107589;28;20055;-63
2023/06/09 01:47:18;;;;;;;0.70;0.70;;;;;;;16.21;86.82;96750.53;5107381;28;20525;-63
2023/06/09 01:50:02;;;;;;;0.68;0.68;;;;;;;16.14;87.55;96756.19;5107634;27;20051;-63
2023/06/09 01:52:47;;;;;;;0.60;0.60;;;;;;;16.19;86.79;96743.75;5106728;28;20070;-63
2023/06/09 01:55:21;;;;;;;0.70;0.70;;;;;;;15.69;87.45;96681.97;5105703;28;20051;-63
2023/06/09 01:57:53;;;;;;;0.70;0.70;;;;;;;16.03;87.13;96738.72;5107148;28;20445;-62
2023/06/09 02:00:24;;;;;;;0.65;0.65;;;;;;;15.49;88.54;96675.34;5107433;28;20531;-64
2023/06/09 02:02:54;;;;;;;0.60;0.60;;;;;;;15.91;88.15;96742.03;5106865;28;20498;-63
2023/06/09 02:05:22;;;;;;;0.70;0.70;;;;;;;15.87;88.38;96738.47;5106685;28;20058;-64
2023/06/09 02:07:51;;;;;;;0.70;0.70;;;;;;;15.89;88.23;96738.84;5106960;28;20090;-63
2023/06/09 02:10:22;;;;;;;0.60;0.60;;;;;;;15.79;88.33;96739.72;5106484;28;20063;-64
2023/06/09 02:12:49;;;;;;;0.70;0.70;;;;;;;15.87;88.47;96729.31;5106802;28;20040;-63
2023/06/09 02:15:16;;;;;;;0.70;0.70;;;;;;;15.85;88.00;96738.09;5107196;28;20070;-63
2023/06/09 02:17:42;;;;;;;0.60;0.60;;;;;;;15.54;89.73;96738.34;5105786;28;20073;-63
2023/06/09 02:20:10;;;;;;;0.65;0.65;;;;;;;15.51;90.15;96739.94;5107511;28;20134;-64
2023/06/09 02:22:38;;;;;;;0.60;0.60;;;;;;;15.18;90.40;96691.13;5105527;28;20051;-63
2023/06/09 02:25:05;;;;;;;0.52;0.52;;;;;;;15.45;90.78;96727.63;5087262;28;20870;-63
2023/06/09 02:27:32;;;;;;;0.60;0.60;;;;;;;15.18;90.15;96695.91;5086164;28;20048;-63
2023/06/09 02:29:59;;;;;;;0.70;0.70;;;;;;;15.43;90.59;96737.63;5077795;28;20579;-63
2023/06/09 02:32:26;;;;;;;0.60;0.60;;;;;;;15.47;89.83;96728.03;5065989;28;20048;-63
2023/06/09 02:34:52;;;;;;;0.63;0.63;;;;;;;15.41;89.89;96717.72;5066272;28;20090;-64
2023/06/09 02:37:19;;;;;;;0.60;0.60;;;;;;;15.40;89.73;96722.47;5066008;28;20052;-63
2023/06/09 02:39:46;;;;;;;0.60;0.60;;;;;;;15.38;89.55;96724.88;5066170;28;20048;-63
2023/06/09 02:42:12;;;;;;;0.70;0.70;;;;;;;15.38;89.68;96730.47;5065842;28;20052;-63
2023/06/09 02:44:41;;;;;;;0.63;0.63;;;;;;;15.31;90.33;96733.28;5081188;28;20665;-64
2023/06/09 02:47:07;;;;;;;0.70;0.70;;;;;;;14.89;90.26;96652.66;5065409;28;20076;-64
2023/06/09 02:49:34;;;;;;;0.60;0.60;;;;;;;15.37;90.27;96733.63;5065914;28;20045;-63
2023/06/09 02:52:01;;;;;;;0.60;0.60;;;;;;;15.29;90.26;96713.38;5064942;28;20045;-64
2023/06/09 02:54:27;;;;;;;0.60;0.60;;;;;;;15.45;89.41;96738.81;5065811;28;20052;-63
2023/06/09 02:56:56;;;;;;;0.70;0.70;;;;;;;15.40;89.43;96736.44;5065448;28;20055;-63
2023/06/09 02:59:22;;;;;;;0.70;0.70;;;;;;;15.33;90.30;96744.03;5065104;28;20595;-64
2023/06/09 03:01:49;;;;;;;0.65;0.65;;;;;;;15.43;90.16;96727.25;5065670;28;20469;-63
2023/06/09 03:04:17;;;;;;;0.68;0.68;;;;;;;15.43;89.45;96735.63;5080751;28;20061;-65
2023/06/09 03:06:44;;;;;;;0.70;0.70;;;;;;;14.59;89.58;96605.03;5064812;28;20132;-65
2023/06/09 03:09:12;;;;;;;0.60;0.60;;;;;;;15.49;89.27;96733.22;5064085;28;20159;-64
2023/06/09 03:11:39;;;;;;;0.70;0.70;;;;;;;15.46;89.44;96734.78;5065731;28;20286;-63
2023/06/09 03:14:07;;;;;;;0.60;0.60;;;;;;;15.56;89.04;96728.34;5065405;28;20080;-64
2023/06/09 03:16:34;;;;;;;0.70;0.70;;;;;;;15.62;88.45;96737.06;5080726;28;20438;-64
2023/06/09 03:19:01;;;;;;;0.65;0.65;;;;;;;15.66;87.86;96735.06;5065294;28;20048;-64
2023/06/09 03:21:28;;;;;;;0.60;0.60;;;;;;;15.74;87.87;96748.56;5063917;28;20505;-64
2023/06/09 03:23:55;;;;;;;0.70;0.70;;;;;;;15.76;87.32;96751.72;5079896;28;20051;-64
2023/06/09 03:26:23;;;;;;;0.65;0.65;;;;;;;15.68;87.68;96743.84;5105031;28;20484;-64
2023/06/09 03:28:50;;;;;;;0.60;0.60;;;;;;;15.74;87.32;96754.16;5105031;28;20108;-64
2023/06/09 03:31:17;;;;;;;0.60;0.60;;;;;;;15.90;86.12;96746.03;5090236;28;20219;-64
2023/06/09 03:33:44;;;;;;;0.60;0.60;;;;;;;15.76;86.23;96729.38;5084766;28;20131;-64
2023/06/09 03:36:11;;;;;;;0.60;0.60;;;;;;;15.96;85.55;96749.97;5098455;28;20127;-63
2023/06/09 03:38:38;;;;;;;0.63;0.63;;;;;;;15.86;86.21;96731.31;5064599;28;20047;-63
2023/06/09 03:41:04;;;;;;;0.70;0.70;;;;;;;15.90;86.60;96740.44;5062649;28;20167;-64
2023/06/09 03:43:31;;;;;;;0.70;0.70;;;;;;;15.99;86.55;96743.56;5063180;28;20045;-65
2023/06/09 03:45:58;;;;;;;0.60;0.60;;;;;;;15.70;85.59;96679.97;5063527;28;20052;-64
2023/06/09 03:48:25;;;;;;;0.70;0.70;;;;;;;15.92;85.66;96704.50;5064193;28;20053;-64
2023/06/09 03:50:52;;;;;;;0.70;0.70;;;;;;;16.11;85.93;96750.63;5063864;28;20044;-63
2023/06/09 03:53:19;;;;;;;0.70;0.70;;;;;;;16.15;85.27;96757.78;5063433;28;20066;-63
2023/06/09 03:55:46;;;;;;;0.73;0.73;;;;;;;16.32;84.92;96751.22;5063057;28;20048;-63
2023/06/09 03:58:13;;;;;;;0.60;0.60;;;;;;;16.29;84.40;96738.09;5061647;28;20060;-64
2023/06/09 04:00:42;;;;;;;0.70;0.70;;;;;;;16.13;84.44;96707.09;5064458;28;20076;-63
2023/06/09 04:03:09;;;;;;;0.70;0.70;;;;;;;16.51;83.87;96756.25;5069322;28;20083;-64
2023/06/09 04:05:35;;;;;;;0.70;0.70;;;;;;;16.52;83.45;96760.63;5083918;28;20186;-64
2023/06/09 04:08:02;;;;;;;0.70;0.70;;;;;;;15.45;83.91;96585.28;5073422;28;20363;-62
2023/06/09 04:10:29;;;;;;;0.70;0.70;;;;;;;16.08;83.79;96673.22;5063943;28;20056;-63
2023/06/09 04:12:57;;;;;;;0.70;0.70;;;;;;;15.93;87.42;96773.13;5063863;28;20056;-63
2023/06/09 04:15:23;;;;;;;0.70;0.70;;;;;;;16.26;87.20;96764.06;5062665;28;20163;-63
2023/06/09 04:17:50;;;;;;;0.70;0.70;;;;;;;16.58;85.17;96758.97;5063535;28;20102;-63
2023/06/09 04:20:21;;;;;;;0.63;0.63;;;;;;;16.76;83.49;96771.94;5063668;28;20060;-62
2023/06/09 04:22:49;;;;;;;0.70;0.70;;;;;;;16.94;83.97;96772.53;5062526;28;20055;-64
2023/06/09 04:25:17;;;;;;;0.70;0.70;;;;;;;17.08;83.57;96773.16;5097859;28;20503;-62
2023/06/09 04:27:43;;;;;;;0.80;0.80;;;;;;;16.83;82.61;96701.94;5102963;28;20048;-62
2023/06/09 04:30:11;;;;;;;0.60;0.60;;;;;;;17.42;81.25;96770.31;5104662;28;20446;-62
2023/06/09 04:32:37;;;;;;;0.80;0.80;;;;;;;17.48;80.35;96749.06;5104226;28;20101;-62
2023/06/09 04:35:05;;;;;;;0.70;0.70;;;;;;;17.73;80.06;96771.88;5104162;28;20043;-63
2023/06/09 04:37:32;;;;;;;0.73;0.73;;;;;;;17.70;79.62;96778.34;5102379;28;20043;-63
2023/06/09 04:39:59;;;;;;;0.70;0.70;;;;;;;17.90;79.56;96765.19;5104427;28;20043;-62
2023/06/09 04:42:25;;;;;;;0.75;0.75;;;;;;;18.06;79.16;96774.56;5104177;28;20050;-63
2023/06/09 04:44:53;;;;;;;0.80;0.80;;;;;;;18.18;78.63;96772.34;5104587;28;20436;-62
2023/06/09 04:47:24;;;;;;;0.70;0.70;;;;;;;18.42;77.68;96769.13;5104414;28;20088;-62
2023/06/09 04:49:53;;;;;;;0.80;0.80;;;;;;;18.37;76.98;96772.41;5105021;28;20048;-63
2023/06/09 04:52:20;;;;;;;0.80;0.80;;;;;;;18.09;77.60;96736.44;5103778;28;20060;-63
2023/06/09 04:54:49;;;;;;;0.77;0.77;;;;;;;17.77;76.99;96649.31;5084233;28;20050;-63
2023/06/09 04:57:17;;;;;;;0.80;0.80;;;;;;;18.59;77.18;96773.63;5082948;28;20052;-63
2023/06/09 04:59:45;;;;;;;0.80;0.80;;;;;;;18.53;77.11;96774.53;5081810;28;20074;-63
2023/06/09 05:02:11;;;;;;;0.80;0.80;;;;;;;18.71;75.93;96761.78;5063752;28;20620;-62
2023/06/09 05:04:39;;;;;;;0.90;0.90;;;;;;;18.68;75.57;96768.25;5062894;28;20056;-63
2023/06/09 05:07:06;;;;;;;0.80;0.80;;;;;;;18.56;75.19;96774.47;5062862;28;20049;-63
2023/06/09 05:09:33;;;;;;;0.80;0.80;;;;;;;18.22;76.57;96776.69;5062315;28;20126;-64
2023/06/09 05:12:00;;;;;;;0.80;0.80;;;;;;;17.97;78.33;96714.66;5062943;28;20060;-64
2023/06/09 05:14:26;;;;;;;0.80;0.80;;;;;;;18.69;76.62;96777.44;5063873;28;20103;-63
2023/06/09 05:16:58;;;;;;;0.70;0.70;;;;;;;18.16;77.98;96775.59;5062961;28;20526;-64
2023/06/09 05:19:24;;;;;;;0.90;0.90;;;;;;;18.39;78.44;96774.81;5063651;28;20474;-63
2023/06/09 05:21:51;;;;;;;0.80;0.80;;;;;;;18.70;76.84;96757.38;5061818;28;20061;-64
2023/06/09 05:24:18;;;;;;;0.80;0.80;;;;;;;18.62;75.12;96699.03;5069465;28;20052;-63
2023/06/09 05:26:45;;;;;;;0.70;0.70;;;;;;;18.49;75.36;96763.41;5083667;28;20078;-64
2023/06/09 05:29:12;;;;;;;0.73;0.73;;;;;;;18.63;76.20;96760.34;5084101;28;20048;-63
2023/06/09 05:31:39;;;;;;;0.90;0.90;;;;;;;19.05;74.77;96744.66;5087174;28;20040;-63
2023/06/09 05:34:05;;;;;;;0.90;0.90;;;;;;;19.40;73.93;96760.78;5085871;28;20572;-64
2023/06/09 05:36:32;;;;;;;0.80;0.80;;;;;;;19.71;72.77;96752.84;5087391;28;20464;-64
2023/06/09 05:38:59;;;;;;;0.70;0.70;;;;;;;19.89;71.36;96756.81;5086640;28;20048;-65
2023/06/09 05:41:26;;;;;;;0.80;0.80;;;;;;;20.09;69.60;96745.50;5080788;28;20533;-65
2023/06/09 05:43:53;;;;;;;0.80;0.80;;;;;;;20.00;70.71;96750.94;5077944;28;20058;-65
2023/06/09 05:46:20;;;;;;;0.90;0.90;;;;;;;20.31;69.10;96752.19;5083245;28;20166;-64
2023/06/09 05:48:48;;;;;;;0.90;0.90;;;;;;;20.27;68.21;96748.66;5078510;28;20054;-63
2023/06/09 05:51:16;;;;;;;0.80;0.80;;;;;;;20.52;68.55;96757.25;5083369;28;20055;-64
2023/06/09 05:53:43;;;;;;;0.70;0.70;;;;;;;20.46;67.65;96728.06;5069891;28;20075;-63
2023/06/09 05:56:10;;;;;;;0.90;0.90;;;;;;;20.98;66.89;96756.81;5092130;28;20053;-63
2023/06/09 05:58:37;;;;;;;0.90;0.90;;;;;;;21.15;65.59;96755.50;5080608;28;20052;-65
2023/06/09 06:01:04;;;;;;;0.90;0.90;;;;;;;20.77;66.78;96723.59;5082508;28;20048;-65
2023/06/09 06:03:32;;;;;;;1.00;1.00;;;;;;;20.90;66.96;96766.66;5081128;28;20058;-65
2023/06/09 06:06:00;;;;;;;0.82;0.82;;;;;;;20.37;66.52;96663.22;5074289;28;20060;-64
2023/06/09 06:08:26;;;;;;;0.90;0.90;;;;;;;21.19;65.97;96761.84;5080661;28;20041;-61
2023/06/09 06:10:53;;;;;;;0.88;0.88;;;;;;;21.33;65.29;96764.25;5074026;28;20156;-65
2023/06/09 06:13:20;;;;;;;0.90;0.90;;;;;;;21.30;64.71;96722.88;5068490;28;20159;-63
2023/06/09 06:15:46;;;;;;;0.90;0.90;;;;;;;21.46;64.38;96765.06;5078225;28;20067;-66
2023/06/09 06:18:14;;;;;;;0.90;0.90;;;;;;;21.51;64.11;96739.16;5085979;28;20074;-64
2023/06/09 06:20:41;;;;;;;0.90;0.90;;;;;;;21.69;63.79;96750.66;5081489;28;20141;-61
2023/06/09 06:23:08;;;;;;;1.00;1.00;;;;;;;21.86;63.24;96752.13;5082849;28;20052;-70
2023/06/09 06:25:41;;;;;;;0.90;0.90;;;;;;;22.09;62.57;96746.16;5065718;28;20048;-63
2023/06/09 06:28:09;;;;;;;0.90;0.90;;;;;;;22.38;61.71;96758.06;5078737;28;20057;-63
2023/06/09 06:30:37;;;;;;;0.90;0.90;;;;;;;22.37;61.50;96748.03;5072979;28;20044;-64
2023/06/09 06:33:04;;;;;;;1.05;1.05;;;;;;;22.20;61.55;96728.88;5065777;28;20652;-65
2023/06/09 06:35:31;;;;;;;0.90;0.90;;;;;;;22.15;60.84;96685.09;5082618;28;20076;-63
2023/06/09 06:37:58;;;;;;;0.93;0.93;;;;;;;22.49;60.88;96735.13;5079070;28;20614;-63
2023/06/09 06:40:25;;;;;;;0.95;0.95;;;;;;;22.65;60.06;96708.81;5066760;28;20048;-65
2023/06/09 06:42:52;;;;;;;0.90;0.90;;;;;;;22.80;59.52;96721.16;5071878;28;20506;-67
2023/06/09 06:45:19;;;;;;;0.82;0.82;;;;;;;23.29;58.02;96747.59;5078718;28;20139;-63
2023/06/09 06:47:46;;;;;;;1.00;1.00;;;;;;;22.94;58.61;96706.50;5063678;28;20063;-65
2023/06/09 06:50:13;;;;;;;1.00;1.00;;;;;;;22.81;59.79;96742.50;5065276;28;20557;-62
2023/06/09 06:52:40;;;;;;;1.00;1.00;;;;;;;23.18;59.67;96741.53;5065137;28;20501;-66
2023/06/09 06:55:08;;;;;;;1.00;1.00;;;;;;;22.95;59.38;96710.91;5064644;28;20055;-62
2023/06/09 06:57:35;;;;;;;1.00;1.00;;;;;;;23.40;58.74;96739.50;5073626;28;20131;-64
2023/06/09 07:00:10;;;;;;;1.10;1.10;;;;;;;23.11;59.88;96744.63;5066429;28;20051;-66
2023/06/09 07:02:37;;;;;;;1.10;1.10;;;;;;;23.00;61.29;96744.25;5064438;28;20051;-62
2023/06/09 07:05:06;;;;;;;1.10;1.10;;;;;;;23.06;59.44;96712.09;5066327;28;20238;-68
2023/06/09 07:07:33;;;;;;;0.90;0.90;;;;;;;23.02;61.85;96744.56;5071487;28;20052;-71
2023/06/09 07:10:01;;;;;;;1.00;1.00;;;;;;;22.68;59.27;96651.41;5078288;28;20048;-69
2023/06/09 07:12:28;;;;;;;1.00;1.00;;;;;;;22.69;59.42;96658.63;5083022;28;20048;-64
2023/06/09 07:14:56;;;;;;;1.10;1.10;;;;;;;22.07;59.92;96531.41;5071511;28;20040;-61
2023/06/09 07:17:22;;;;;;;1.08;1.08;;;;;;;23.72;59.26;96727.75;5069302;28;20517;-72
2023/06/09 07:19:49;;;;;;;1.10;1.10;;;;;;;23.48;59.62;96661.66;5082649;28;20141;-67
2023/06/09 07:22:16;;;;;;;1.00;1.00;;;;;;;23.08;60.82;96723.72;5068915;28;20056;-65
2023/06/09 07:24:43;;;;;;;1.00;1.00;;;;;;;22.08;63.73;96643.00;5073125;28;20526;-62
2023/06/09 07:27:10;;;;;;;0.90;0.90;;;;;;;22.88;63.17;96688.56;5076256;28;20070;-64
2023/06/09 07:29:37;;;;;;;0.90;0.90;;;;;;;23.59;61.22;96710.09;5073837;28;20068;-60
2023/06/09 07:32:05;;;;;;;1.10;1.10;;;;;;;23.74;59.95;96722.44;5065901;28;20567;-68
2023/06/09 07:34:31;;;;;;;0.90;0.90;;;;;;;22.43;63.54;96729.25;5076666;28;20044;-66
2023/06/09 07:36:59;;;;;;;1.05;1.05;;;;;;;23.19;61.02;96726.94;5064108;28;20159;-65
2023/06/09 07:39:27;;;;;;;0.90;0.90;;;;;;;23.39;59.11;96701.19;5066568;28;20045;-68
2023/06/09 07:41:53;;;;;;;1.10;1.10;;;;;;;23.07;58.26;96676.16;5081130;28;20052;-63
2023/06/09 07:44:20;;;;;;;1.05;1.05;;;;;;;23.27;58.19;96688.72;5079190;28;20052;-65
2023/06/09 07:46:47;;;;;;;1.00;1.00;;;;;;;21.65;61.21;96600.56;5063874;28;20143;-62
2023/06/09 07:49:14;;;;;;;1.02;1.02;;;;;;;22.81;61.29;96646.47;5064032;28;20052;-60
2023/06/09 07:51:43;;;;;;;1.10;1.10;;;;;;;21.26;61.08;96389.72;5062598;28;20048;-67
2023/06/09 07:54:10;;;;;;;0.95;0.95;;;;;;;22.43;64.78;96717.19;5068852;28;20064;-63
2023/06/09 07:56:37;;;;;;;0.90;0.90;;;;;;;23.12;63.58;96720.78;5063861;28;20419;-67
2023/06/09 07:59:05;;;;;;;0.93;0.93;;;;;;;22.72;61.57;96635.09;5063658;28;20491;-67
2023/06/09 08:01:32;;;;;;;1.10;1.10;;;;;;;23.18;60.63;96690.66;5069188;28;20151;-64
2023/06/09 08:04:02;;;;;;;0.90;0.90;;;;;;;22.83;60.75;96680.69;5071893;28;20049;-63
2023/06/09 08:06:29;;;;;;;0.93;0.93;;;;;;;22.60;61.33;96718.66;5066141;28;20044;-64
2023/06/09 08:08:56;;;;;;;1.15;1.15;;;;;;;22.90;61.16;96714.34;5070514;28;20041;-65
2023/06/09 08:11:24;;;;;;;1.00;1.00;;;;;;;22.56;60.08;96678.44;5083087;28;20051;-64
2023/06/09 08:13:50;;;;;;;1.00;1.00;;;;;;;22.66;58.77;96721.66;5080827;28;20507;-65
2023/06/09 08:16:17;;;;;;;1.00;1.00;;;;;;;22.85;60.18;96723.38;5070486;28;20125;-63
2023/06/09 08:18:44;;;;;;;1.00;1.00;;;;;;;22.67;59.89;96689.38;5063354;28;20071;-64
2023/06/09 08:21:11;;;;;;;1.10;1.10;;;;;;;23.19;58.80;96720.53;5064190;28;20063;-64
2023/06/09 08:23:43;;;;;;;1.10;1.10;;;;;;;23.11;57.71;96696.59;5064933;28;20106;-61
2023/06/09 08:26:10;;;;;;;1.05;1.05;;;;;;;22.76;58.51;96714.84;5075884;28;20052;-65
2023/06/09 08:28:38;;;;;;;0.95;0.95;;;;;;;23.13;58.48;96706.19;5065198;28;20058;-71
2023/06/09 08:31:06;;;;;;;1.10;1.10;;;;;;;23.43;57.99;96730.09;5074174;28;20048;-63
2023/06/09 08:33:35;;;;;;;0.98;0.98;;;;;;;23.37;55.97;96731.97;5063297;28;20045;-63
2023/06/09 08:36:03;;;;;;;1.02;1.02;;;;;;;23.50;55.04;96732.66;5076601;28;20052;-66
2023/06/09 08:38:32;;;;;;;1.08;1.08;;;;;;;23.43;54.64;96727.28;5072059;28;20044;-67
2023/06/09 08:41:10;;;;;;;1.00;1.00;;;;;;;23.24;55.48;96683.16;5072980;28;20055;-65
2023/06/09 08:43:37;;;;;;;1.10;1.10;;;;;;;23.61;52.92;96696.28;5073754;28;20442;-62
2023/06/09 08:46:06;;;;;;;1.05;1.05;;;;;;;22.59;52.57;96546.88;5063409;28;20140;-65
2023/06/09 08:48:37;;;;;;;1.00;1.00;;;;;;;23.25;51.11;96690.41;5063507;28;20052;-63
2023/06/09 08:51:04;;;;;;;1.00;1.00;;;;;;;23.88;51.56;96716.19;5076254;28;20074;-66
2023/06/09 08:53:32;;;;;;;1.20;1.20;;;;;;;24.37;52.47;96713.38;5081317;28;20403;-67
2023/06/09 08:56:00;;;;;;;1.00;1.00;;;;;;;24.33;51.11;96645.56;5073283;28;20431;-66
2023/06/09 08:58:27;;;;;;;1.00;1.00;;;;;;;24.38;49.94;96715.72;5061878;28;20510;-66
2023/06/09 09:00:54;;;;;;;1.17;1.17;;;;;;;22.71;48.69;96418.91;5062959;28;20215;-66
2023/06/09 09:03:22;;;;;;;1.10;1.10;;;;;;;24.26;48.54;96713.84;5063060;28;20575;-63
2023/06/09 09:05:49;;;;;;;1.05;1.05;;;;;;;23.89;51.08;96678.94;5064718;28;20142;-65
2023/06/09 09:08:19;;;;;;;1.13;1.13;;;;;;;23.98;52.02;96683.84;5063709;28;20060;-69
2023/06/09 09:10:46;;;;;;;1.00;1.00;;;;;;;24.27;52.83;96670.09;5065060;28;20056;-64
2023/06/09 09:13:13;;;;;;;1.10;1.10;;;;;;;24.29;54.53;96700.78;5065811;28;20052;-65
2023/06/09 09:15:50;;;;;;;1.13;1.13;;;;;;;23.84;52.52;96585.38;5062479;28;20052;-65
2023/06/09 09:18:19;;;;;;;1.10;1.10;;;;;;;24.28;50.59;96595.22;5064624;28;20045;-63
2023/06/09 09:20:46;;;;;;;1.10;1.10;;;;;;;24.15;53.55;96634.22;5065109;28;20080;-72
2023/06/09 09:23:14;;;;;;;1.10;1.10;;;;;;;24.16;53.32;96630.13;5063581;28;20055;-67
2023/06/09 09:25:41;;;;;;;1.33;1.33;;;;;;;24.43;54.55;96689.63;5065345;28;20459;-67
2023/06/09 09:28:10;;;;;;;1.20;1.20;;;;;;;24.23;53.77;96652.50;5067117;28;20477;-65
2023/06/09 09:30:51;;;;;;;1.27;1.27;;;;;;;24.13;54.38;96687.69;5080663;28;20056;-67
2023/06/09 09:33:20;;;;;;;1.15;1.15;;;;;;;23.50;52.96;96554.53;5066939;28;20045;-67
2023/06/09 09:35:53;;;;;;;1.20;1.20;;;;;;;23.51;52.40;96595.69;5066949;28;20052;-67
2023/06/09 09:38:26;;;;;;;1.08;1.08;;;;;;;24.37;52.31;96615.06;5066754;28;20080;-65
2023/06/09 09:40:55;;;;;;;1.10;1.10;;;;;;;25.15;50.90;96678.28;5081259;28;20045;-65
2023/06/09 09:43:25;;;;;;;1.15;1.15;;;;;;;23.50;51.04;96442.22;5065805;28;20117;-65
2023/06/09 09:45:53;;;;;;;1.30;1.30;;;;;;;25.43;50.80;96681.09;5065820;28;20121;-69
2023/06/09 09:48:22;;;;;;;1.20;1.20;;;;;;;26.13;47.83;96674.84;5064097;28;20040;-69
2023/06/09 09:50:52;;;;;;;1.35;1.35;;;;;;;25.86;47.15;96561.44;5080293;28;20045;-70
2023/06/09 09:53:23;;;;;;;1.30;1.30;;;;;;;25.53;47.97;96628.75;5064833;28;20056;-69
2023/06/09 09:55:53;;;;;;;1.30;1.30;;;;;;;26.28;46.99;96667.16;5064458;28;20049;-68
2023/06/09 09:58:27;;;;;;;1.20;1.20;;;;;;;26.50;45.29;96674.13;5066346;28;20502;-68
2023/06/09 10:00:57;;;;;;;1.40;1.40;;;;;;;26.69;46.11;96657.75;5064737;28;20056;-66
2023/06/09 10:03:25;;;;;;;1.42;1.42;;;;;;;26.06;44.72;96587.19;5064752;28;20431;-68
2023/06/09 10:05:55;;;;;;;1.40;1.40;;;;;;;26.04;45.44;96629.44;5065801;28;20063;-69
2023/06/09 10:08:26;;;;;;;1.30;1.30;;;;;;;26.74;43.95;96659.91;5065838;28;20062;-67
2023/06/09 10:10:59;;;;;;;1.40;1.40;;;;;;;27.20;41.79;96651.75;5066071;28;20148;-66
2023/06/09 10:13:27;;;;;;;1.38;1.38;;;;;;;27.68;42.83;96653.91;5081757;28;20087;-68
2023/06/09 10:15:55;;;;;;;1.20;1.20;;;;;;;27.18;43.88;96643.72;5064898;28;20052;-69
2023/06/09 10:18:23;;;;;;;1.60;1.60;;;;;;;27.87;42.18;96689.41;5066073;28;20068;-67
2023/06/09 10:20:54;;;;;;;1.60;1.60;;;;;;;28.31;40.88;96657.22;5065909;28;20524;-68
2023/06/09 10:23:23;;;;;;;1.50;1.50;;;;;;;26.61;41.71;96582.63;5066236;28;20076;-65
2023/06/09 10:25:51;;;;;;;1.30;1.30;;;;;;;25.89;43.38;96554.78;5065662;28;20546;-67
2023/06/09 10:28:20;;;;;;;1.40;1.40;;;;;;;27.50;41.83;96642.75;5066402;28;20484;-65
2023/06/09 10:30:49;;;;;;;1.30;1.30;;;;;;;28.04;39.63;96649.84;5064588;28;20055;-65
2023/06/09 10:33:25;;;;;;;1.48;1.48;;;;;;;28.38;38.46;96596.94;5065637;28;20689;-66
2023/06/09 10:35:57;;;;;;;1.50;1.50;;;;;;;26.72;39.62;96639.72;5065725;28;20060;-66
2023/06/09 10:38:30;;;;;;;1.42;1.42;;;;;;;27.25;39.46;96640.44;5065718;28;20052;-69
2023/06/09 10:41:06;;;;;;;1.58;1.58;;;;;;;27.78;39.49;96641.13;5065540;28;20102;-65
2023/06/09 10:43:54;;;;;;;1.30;1.30;;;;;;;27.68;38.83;96638.88;5063994;28;20075;-65
2023/06/09 10:46:37;;;;;;;1.73;1.73;;;;;;;28.04;38.71;96605.03;5065137;28;20204;-70
2023/06/09 10:49:04;;;;;;;1.70;1.70;;;;;;;27.52;38.09;96492.19;5063995;28;20053;-67
2023/06/09 10:51:30;;;;;;;1.77;1.77;;;;;;;28.10;38.51;96623.00;5064966;28;20071;-67
2023/06/09 10:54:21;;;;;;;1.60;1.60;;;;;;;28.37;39.59;96629.56;5064535;28;20056;-65
2023/06/09 10:56:52;;;;;;;1.58;1.58;;;;;;;28.28;39.07;96604.06;5061859;28;20133;-68
2023/06/09 10:59:25;;;;;;;1.77;1.77;;;;;;;28.70;37.72;96624.31;5065105;28;20049;-69
2023/06/09 11:02:04;;;;;;;1.67;1.67;;;;;;;28.53;39.34;96615.59;5064716;28;20053;-69
2023/06/09 11:04:38;;;;;;;1.80;1.80;;;;;;;28.84;38.64;96614.88;5065361;28;20273;-66
2023/06/09 11:07:12;;;;;;;1.80;1.80;;;;;;;29.14;37.84;96613.41;5063129;28;20109;-69
2023/06/09 11:09:46;;;;;;;1.50;1.50;;;;;;;27.72;39.76;96560.56;5065273;28;20109;-69
2023/06/09 11:12:25;;;;;;;;;;;;;;;28.91;39.46;96605.91;5063932;28;20525;-67
2023/06/09 11:14:57;;;;;;;1.60;1.60;;;;;;;28.83;38.90;96587.66;5065162;28;19975;-66
2023/06/09 11:17:51;;;;;;;1.70;1.70;;;;;;;28.96;39.33;96608.78;5064836;28;20488;-65
2023/06/09 11:20:23;;;;;;;1.92;1.92;;;;;;;29.49;38.81;96599.72;5063275;28;20048;-66
2023/06/09 11:22:51;;;;;;;1.60;1.60;;;;;;;29.67;38.62;96605.09;5062979;28;20059;-66
2023/06/09 11:25:17;;;;;;;1.52;1.52;;;;;;;29.93;37.48;96600.09;5064108;28;20055;-69
2023/06/09 11:27:54;;;;;;;1.63;1.63;;;;;;;30.04;36.97;96570.78;5064059;28;20549;-68
2023/06/09 11:30:29;;;;;;;1.67;1.67;;;;;;;28.45;38.79;96596.53;5064427;28;20163;-67
2023/06/09 11:33:00;;;;;;;1.50;1.50;;;;;;;27.88;40.16;96582.81;5064120;28;20053;-65
2023/06/09 11:35:27;;;;;;;1.73;1.73;;;;;;;28.52;39.09;96584.69;5060579;28;20400;-64
2023/06/09 11:37:58;;;;;;;1.58;1.58;;;;;;;27.45;40.48;96589.38;5062688;28;20052;-64
2023/06/09 11:40:27;;;;;;;1.73;1.73;;;;;;;28.13;40.00;96585.00;5064104;28;20060;-63
2023/06/09 11:42:55;;;;;;;1.50;1.50;;;;;;;28.21;39.98;96513.31;5061385;28;20435;-65